Meteorología y climatología de Navarra
Datos de la estación - Meteo Navarra

Estación de Etxarri-Aranatz GN

Altitud 505 m.


Datos desde el 26/03/2020 hasta el 27/03/2020 en horario solar
Los datos son PROVISIONALES

Anterior Página 1 de 1 Siguiente Descargar: Formato para Excel 2000 o superior   Formato csv   Formato para OpenOffice Calc
Fecha Temperatura Humedad relativa Radiación global Insolación Precipitación Vel. viento 10 m Vel. viento 10 m Dir. viento 10 m
ºC % W/m² s l/m² m/s km/h º
26/03/2020 0:00 6.1 73 0.0 0 0.0 1.5 5.5 271
26/03/2020 0:10 6.0 73 0.0 0 0.0 1.9 6.7 275
26/03/2020 0:20 6.0 75 0.0 0 0.0 1.6 5.7 300
26/03/2020 0:30 5.9 82 0.0 0 0.0 1.6 5.6 288
26/03/2020 0:40 5.7 85 0.0 0 0.0 1.4 5.0 293
26/03/2020 0:50 5.6 83 0.0 0 0.1 1.2 4.2 301
26/03/2020 1:00 5.6 85 0.0 0 0.0 1.2 4.4 294
26/03/2020 1:10 5.7 84 0.0 0 0.0 0.8 2.9 287
26/03/2020 1:20 5.8 82 0.0 0 0.0 0.8 2.9 301
26/03/2020 1:30 6.1 82 0.0 0 0.0 1.0 3.5 5
26/03/2020 1:40 5.8 83 0.0 0 0.0 0.4 1.5 327
26/03/2020 1:50 5.9 83 0.0 0 0.0 1.1 3.8 269
26/03/2020 2:00 6.1 82 0.0 0 0.0 0.8 3.0 289
26/03/2020 2:10 6.2 81 0.0 0 0.0 2.1 7.5 267
26/03/2020 2:20 6.3 81 0.0 0 0.0 1.7 6.0 261
26/03/2020 2:30 6.3 83 0.0 0 0.0 1.6 5.7 288
26/03/2020 2:40 6.3 86 0.0 0 0.0 1.5 5.4 289
26/03/2020 2:50 6.2 87 0.0 0 0.1 2.2 7.7 278
26/03/2020 3:00 6.2 86 0.0 0 0.4 2.2 7.8 304
26/03/2020 3:10 6.1 89 0.0 0 0.1 1.0 3.5 317
26/03/2020 3:20 6.0 90 0.0 0 0.0 1.9 6.7 291
26/03/2020 3:30 6.2 89 0.0 0 0.2 1.9 6.7 330
26/03/2020 3:40 6.0 90 0.0 0 0.1 2.1 7.4 286
26/03/2020 3:50 6.1 90 0.0 0 0.0 2.5 9.1 288
26/03/2020 4:00 6.3 88 0.0 0 0.0 2.3 8.3 309
26/03/2020 4:10 6.4 87 0.0 0 0.0 2.2 7.8 301
26/03/2020 4:20 6.4 87 0.0 0 0.0 2.4 8.5 298
26/03/2020 4:30 6.5 85 0.0 0 0.0 2.4 8.7 303
26/03/2020 4:40 6.4 86 0.0 0 0.0 2.3 8.4 295
26/03/2020 4:50 6.5 83 0.0 0 0.0 2.1 7.7 313
26/03/2020 5:00 6.6 82 0.0 0 0.0 2.6 9.3 297
26/03/2020 5:10 6.4 83 0.0 0 0.0 2.5 8.9 290
26/03/2020 5:20 6.5 82 0.0 0 0.0 1.6 5.8 303
26/03/2020 5:30 6.5 82 0.0 0 0.0 2.4 8.7 311
26/03/2020 5:40 6.5 82 0.0 0 0.0 2.8 9.9 310
26/03/2020 5:50 6.7 79 0.0 0 0.0 3.1 11.1 335
26/03/2020 6:00 6.7 80 0.0 0 0.0 2.3 8.3 312
26/03/2020 6:10 6.8 76 0.0 0 0.0 3.1 11.0 313
26/03/2020 6:20 6.9 75 0.0 0 0.0 2.8 10.1 293
26/03/2020 6:30 6.8 75 0.0 0 0.0 2.4 8.5 308
26/03/2020 6:40 6.9 74 5.8 0 0.0 2.4 8.5 308
26/03/2020 6:50 7.1 71 5.0 0 0.0 3.2 11.5 321
26/03/2020 7:00 7.2 71 22.9 0 0.0 2.5 9.0 324
26/03/2020 7:10 7.1 71 19.4 0 0.0 2.1 7.6 290
26/03/2020 7:20 7.1 71 33.1 0 0.0 1.0 3.6 319
26/03/2020 7:30 7.0 70 40.0 0 0.0 2.4 8.6 285
26/03/2020 7:40 7.1 70 97.8 0 0.0 2.2 7.7 284
26/03/2020 7:50 7.3 63 110.0 0 0.0 4.4 15.9 327
26/03/2020 8:00 7.4 61 51.6 0 0.0 4.4 15.9 340
26/03/2020 8:10 7.2 63 41.2 0 0.0 2.4 8.8 301
26/03/2020 8:20 7.3 60 71.0 0 0.0 4.3 15.5 348
26/03/2020 8:30 7.4 60 93.2 0 0.0 3.5 12.5 326
26/03/2020 8:40 7.4 59 106.3 0 0.0 3.7 13.5 346
26/03/2020 8:50 7.4 59 135.6 0 0.0 3.5 12.5 345
26/03/2020 9:00 7.4 58 128.7 0 0.0 3.5 12.6 343
26/03/2020 9:10 7.4 56 131.0 0 0.0 4.4 15.9 334
26/03/2020 9:20 7.5 54 302.0 176 0.0 4.7 17.1 334
26/03/2020 9:30 8.1 54 397.2 278 0.0 2.0 7.2 360
26/03/2020 9:40 8.2 53 371.9 220 0.0 2.2 7.8 329
26/03/2020 9:50 7.9 53 213.3 72 0.0 2.7 9.6 346
26/03/2020 10:00 7.5 49 151.3 0 0.0 4.4 15.8 337
26/03/2020 10:10 7.4 48 177.9 0 0.0 4.3 15.5 325
26/03/2020 10:20 7.4 51 182.3 0 0.0 3.1 11.2 338
26/03/2020 10:30 7.4 52 171.1 0 0.0 2.4 8.8 328
26/03/2020 10:40 7.4 52 168.2 0 0.0 3.0 10.8 340
26/03/2020 10:50 7.3 51 139.8 0 0.0 3.1 11.0 342
26/03/2020 11:00 7.3 51 176.7 0 0.0 2.5 8.9 335
26/03/2020 11:10 7.5 53 340.9 144 0.0 3.5 12.5 330
26/03/2020 11:20 7.6 53 181.3 4 0.0 2.4 8.6 335
26/03/2020 11:30 7.7 53 392.1 176 0.0 1.7 6.1 326
26/03/2020 11:40 7.7 51 286.7 48 0.0 2.5 9.0 355
26/03/2020 11:50 8.0 51 740.4 436 0.0 3.1 11.3 305
26/03/2020 12:00 8.1 47 683.6 420 0.0 5.0 18.0 326
26/03/2020 12:10 8.0 47 743.0 464 0.0 4.2 15.0 337
26/03/2020 12:20 8.1 47 454.8 200 0.0 3.6 12.8 326
26/03/2020 12:30 8.1 44 512.0 222 0.0 4.7 16.9 324
26/03/2020 12:40 7.9 47 296.0 40 0.0 3.6 12.9 304
26/03/2020 12:50 7.8 45 339.8 100 0.0 3.5 12.7 338
26/03/2020 13:00 8.0 45 253.4 0 0.0 3.6 13.0 340
26/03/2020 13:10 7.8 45 424.0 146 0.0 4.2 15.1 321
26/03/2020 13:20 8.0 47 351.3 158 0.0 3.4 12.1 344
26/03/2020 13:30 7.7 46 335.5 134 0.0 3.4 12.1 336
26/03/2020 13:40 7.9 46 290.9 68 0.0 3.7 13.4 333
26/03/2020 13:50 8.1 46 238.1 22 0.0 2.6 9.3 351
26/03/2020 14:00 7.7 46 176.3 0 0.0 2.7 9.6 4
26/03/2020 14:10 8.1 45 542.2 354 0.0 3.4 12.3 351
26/03/2020 14:20 8.0 44 174.1 0 0.0 3.1 11.3 2
26/03/2020 14:30 7.8 44 238.3 98 0.0 2.0 7.1 1
26/03/2020 14:40 8.1 44 194.9 36 0.0 1.7 5.9 0
26/03/2020 14:50 8.0 41 238.6 102 0.0 3.8 13.6 339
26/03/2020 15:00 8.0 43 211.1 76 0.0 2.7 9.7 360
26/03/2020 15:10 7.8 44 154.6 36 0.0 2.5 8.8 1
26/03/2020 15:20 7.7 44 144.4 18 0.0 2.6 9.4 18
26/03/2020 15:30 7.6 43 206.3 140 0.0 2.4 8.8 333
26/03/2020 15:40 7.9 43 381.3 404 0.0 2.3 8.1 6
26/03/2020 15:50 8.1 43 386.7 450 0.0 2.7 9.6 9
26/03/2020 16:00 8.2 42 426.0 538 0.0 2.0 7.3 339
26/03/2020 16:10 8.4 42 234.6 238 0.0 2.4 8.5 7
26/03/2020 16:20 7.5 44 135.7 80 0.0 2.6 9.3 354
26/03/2020 16:30 7.4 46 217.2 320 0.0 2.5 9.0 345
26/03/2020 16:40 7.6 46 298.7 528 0.0 2.3 8.4 335
26/03/2020 16:50 7.8 46 331.9 600 0.0 2.0 7.1 337
26/03/2020 17:00 8.2 47 274.5 600 0.0 1.2 4.5 336
26/03/2020 17:10 7.9 49 202.4 550 0.0 1.5 5.5 22
26/03/2020 17:20 7.6 49 190.9 586 0.0 2.4 8.6 344
26/03/2020 17:30 7.5 50 157.2 600 0.0 1.8 6.6 357
26/03/2020 17:40 7.2 50 115.2 570 0.0 2.0 7.1 355
26/03/2020 17:50 6.9 50 63.6 292 0.0 2.0 7.3 331
26/03/2020 18:00 6.8 51 43.9 170 0.0 2.7 9.5 344
26/03/2020 18:10 6.5 51 24.1 0 0.0 2.8 10.1 0
26/03/2020 18:20 6.3 52 2.0 0 0.0 2.1 7.5 344
26/03/2020 18:30 6.0 54 0.0 0 0.0 1.9 6.8 351
26/03/2020 18:40 6.0 54 0.0 0 0.0 1.6 5.6 359
26/03/2020 18:50 5.8 56 0.0 0 0.0 1.2 4.4 360
26/03/2020 19:00 5.8 56 0.0 0 0.0 2.0 7.1 332
26/03/2020 19:10 5.6 57 0.0 0 0.0 1.9 6.8 344
26/03/2020 19:20 5.4 58 0.0 0 0.0 1.7 6.0 348
26/03/2020 19:30 5.3 58 0.0 0 0.0 2.6 9.2 337
26/03/2020 19:40 5.1 58 0.0 0 0.0 2.1 7.6 343
26/03/2020 19:50 5.1 58 0.0 0 0.0 2.4 8.6 337
26/03/2020 20:00 5.0 57 0.0 0 0.0 2.7 9.5 332
26/03/2020 20:10 5.0 58 0.0 0 0.0 1.7 6.1 333
26/03/2020 20:20 4.8 59 0.0 0 0.0 1.5 5.5 329
26/03/2020 20:30 4.7 60 0.0 0 0.0 1.2 4.3 321
26/03/2020 20:40 4.3 63 0.0 0 0.0 1.4 4.9 283
26/03/2020 20:50 4.0 66 0.0 0 0.0 0.7 2.4 358
26/03/2020 21:00 3.8 66 0.0 0 0.0 0.7 2.6 279
26/03/2020 21:10 2.9 70 0.0 0 0.0 0.3 1.0 243
26/03/2020 21:20 2.0 72 0.0 0 0.0 0.9 3.1 196
26/03/2020 21:30 1.3 75 0.0 0 0.0 1.2 4.2 177
26/03/2020 21:40 0.8 78 0.0 0 0.0 0.8 2.8 167
26/03/2020 21:50 0.8 80 0.0 0 0.0 0.2 0.6 128
26/03/2020 22:00 0.5 81 0.0 0 0.0 0.6 2.1 231
26/03/2020 22:10 0.1 84 0.0 0 0.0 1.0 3.5 161
26/03/2020 22:20 0.2 84 0.0 0 0.0 0.4 1.5 99
26/03/2020 22:30 -0.0 85 0.0 0 0.0 0.2 0.6 330
26/03/2020 22:40 -0.4 85 0.0 0 0.0 0.3 1.0 15
26/03/2020 22:50 -0.5 87 0.0 0 0.0 0.4 1.3 182
26/03/2020 23:00 -0.7 87 0.0 0 0.0 1.5 5.2 176
26/03/2020 23:10 -1.0 89 0.0 0 0.0 1.0 3.7 171
26/03/2020 23:20 -0.9 90 0.0 0 0.0 0.7 2.6 132
26/03/2020 23:30 -0.7 89 0.0 0 0.0 0.8 2.7 343
26/03/2020 23:40 -0.3 88 0.0 0 0.0 0.7 2.3 317
26/03/2020 23:50 -1.0 88 0.0 0 0.0 0.5 1.7 229
Anterior Página 1 de 1 Siguiente

NOTA: Tipo de datos según el color:
   - Valores diarios o 10 minutos correctos
   - Valores diarios calculados a partir de un número de datos 10 minutos menor que 144 y mayor que 120, o de un número de datos semihorarios menor que 48 y mayor que 40 (caso de las estaciones de INTIA y del Ministerio)
   - Valores diez minutos estimados


Contacto        Enlaces        Aviso legal